Accueil
METAR-TAF:

METAR-TAF

Aéroports :

Base aérienne 702 Avord

Avord, France

latitude: 47-03-12N, longitude: 002-37-57E, altitude: 177 m

Observation

Le bulletin a été fait il y a 12 minutes, à 18:00 UTC
Vent 6 kt de ouest/nord-ouest
Température 27°C
Humidité 42%
Pression 1019 hPa
Visibilité 10 km ou plus
pas de nuages en-dessous de 1500 mètres et pas de cumulonimbus.

METAR: LFOA 151800Z AUTO 30006KT CAVOK 27/13 Q1019

Heure: 20:12 (18:12 UTC)

Prévision

Le bulletin a été fait il y a 22 heures et 12 minutes, à 20:00 UTC
Prévision valable du 14 à 21 UTC au 15 à 21 UTC
Vent 5 kt de nord/nord-ouest
Visibilité 10 km ou plus
pas de nuages en-dessous de 1500 mètres et pas de cumulonimbus.
Probabilité 30% :
Temporairement
du 15 à 04 UTC au 15 à 06 UTC
Visibilité: 4500 m
brume

TAF: LFOA 142000Z 1421/1521 33005KT CAVOK PROB30 TEMPO 1504/1506 4500 BR

Observations et prévisions météorologiques de plus de 4000 aéroports (messages METAR et TAF).

Les stations disponibles sont représentées par des disques jaunes et rouges sur la carte.

Passer la souris dessus pour voir le nom de la station.

Cliquer dessus pour voir les observations et prévisions météorologiques.

Pour changer de carte: cliquez sur les boutons verts avec une croix noire pour zoomer, sur le bouton vert avec un tiret pour effectuer un zoom arrière, ou sur les flèches vertes pour les cartes adjacentes.


METAR-TAF: